sensor_id;sensor_type;location;lat;lon;timestamp;pressure;altitude;pressure_sealevel;temperature;humidity
69624;BME280;56843;52.020;5.670;2023-04-09T00:00:41;102441.34;;;12.46;59.52
69624;BME280;56843;52.020;5.670;2023-04-09T00:02:12;102438.13;;;12.44;59.71
69624;BME280;56843;52.020;5.670;2023-04-09T00:03:43;102437.06;;;12.45;59.46
69624;BME280;56843;52.020;5.670;2023-04-09T00:05:13;102437.06;;;12.45;59.71
69624;BME280;56843;52.020;5.670;2023-04-09T00:06:44;102427.94;;;12.46;59.70
69624;BME280;56843;52.020;5.670;2023-04-09T00:08:15;102444.03;;;12.46;59.76
69624;BME280;56843;52.020;5.670;2023-04-09T00:09:45;102437.06;;;12.45;59.47
69624;BME280;56843;52.020;5.670;2023-04-09T00:11:16;102441.63;;;12.44;59.58
69624;BME280;56843;52.020;5.670;2023-04-09T00:12:46;102443.50;;;12.44;59.75
69624;BME280;56843;52.020;5.670;2023-04-09T00:14:17;102446.16;;;12.44;59.61
69624;BME280;56843;52.020;5.670;2023-04-09T00:15:47;102441.63;;;12.44;59.91
69624;BME280;56843;52.020;5.670;2023-04-09T00:17:18;102436.25;;;12.44;59.70
69624;BME280;56843;52.020;5.670;2023-04-09T00:18:48;102440.03;;;12.43;59.78
69624;BME280;56843;52.020;5.670;2023-04-09T00:20:18;102435.75;;;12.42;59.89
69624;BME280;56843;52.020;5.670;2023-04-09T00:21:49;102435.75;;;12.42;60.04
69624;BME280;56843;52.020;5.670;2023-04-09T00:23:20;102440.31;;;12.42;59.83
69624;BME280;56843;52.020;5.670;2023-04-09T00:24:50;102429.91;;;12.40;59.69
69624;BME280;56843;52.020;5.670;2023-04-09T00:26:21;102436.88;;;12.41;59.96
69624;BME280;56843;52.020;5.670;2023-04-09T00:27:52;102435.25;;;12.40;59.71
69624;BME280;56843;52.020;5.670;2023-04-09T00:29:22;102430.69;;;12.41;60.00
69624;BME280;56843;52.020;5.670;2023-04-09T00:30:52;102428.81;;;12.41;59.69
69624;BME280;56843;52.020;5.670;2023-04-09T00:32:23;102428.81;;;12.41;59.74
69624;BME280;56843;52.020;5.670;2023-04-09T00:33:53;102426.41;;;12.40;60.03
69624;BME280;56843;52.020;5.670;2023-04-09T00:35:24;102422.66;;;12.41;59.64
69624;BME280;56843;52.020;5.670;2023-04-09T00:36:55;102429.09;;;12.40;59.96
69624;BME280;56843;52.020;5.670;2023-04-09T00:38:25;102422.94;;;12.39;59.93
69624;BME280;56843;52.020;5.670;2023-04-09T00:39:56;102422.94;;;12.39;59.77
69624;BME280;56843;52.020;5.670;2023-04-09T00:41:26;102425.63;;;12.39;60.03
69624;BME280;56843;52.020;5.670;2023-04-09T00:42:57;102412.22;;;12.39;59.64
69624;BME280;56843;52.020;5.670;2023-04-09T00:44:28;102424.03;;;12.38;59.76
69624;BME280;56843;52.020;5.670;2023-04-09T00:45:59;102416.00;;;12.38;60.02
69624;BME280;56843;52.020;5.670;2023-04-09T00:47:31;102418.69;;;12.38;59.85
69624;BME280;56843;52.020;5.670;2023-04-09T00:49:02;102407.97;;;12.38;60.00
69624;BME280;56843;52.020;5.670;2023-04-09T00:50:32;102411.44;;;12.39;60.21
69624;BME280;56843;52.020;5.670;2023-04-09T00:52:03;102414.41;;;12.37;60.03
69624;BME280;56843;52.020;5.670;2023-04-09T00:53:34;102415.50;;;12.36;60.16
69624;BME280;56843;52.020;5.670;2023-04-09T00:55:04;102410.16;;;12.36;60.24
69624;BME280;56843;52.020;5.670;2023-04-09T00:56:35;102415.00;;;12.34;60.07
69624;BME280;56843;52.020;5.670;2023-04-09T00:58:06;102401.63;;;12.34;60.24
69624;BME280;56843;52.020;5.670;2023-04-09T00:59:37;102402.69;;;12.33;60.31
69624;BME280;56843;52.020;5.670;2023-04-09T01:03:27;102404.69;;;12.28;60.10
69624;BME280;56843;52.020;5.670;2023-04-09T01:04:58;102409.75;;;12.29;60.33
69624;BME280;56843;52.020;5.670;2023-04-09T01:06:46;102410.22;;;12.31;60.27
69624;BME280;56843;52.020;5.670;2023-04-09T01:08:35;102400.91;;;12.29;60.25
69624;BME280;56843;52.020;5.670;2023-04-09T01:10:30;102403.06;;;12.27;60.20
69624;BME280;56843;52.020;5.670;2023-04-09T01:14:13;102396.91;;;12.26;60.46
69624;BME280;56843;52.020;5.670;2023-04-09T01:15:55;102397.53;;;12.23;60.26
69624;BME280;56843;52.020;5.670;2023-04-09T01:17:49;102397.22;;;12.25;60.19
69624;BME280;56843;52.020;5.670;2023-04-09T01:19:46;102394.84;;;12.23;60.62
69624;BME280;56843;52.020;5.670;2023-04-09T01:21:21;102390.06;;;12.20;60.44
69624;BME280;56843;52.020;5.670;2023-04-09T01:24:56;102399.41;;;12.23;60.48
69624;BME280;56843;52.020;5.670;2023-04-09T01:26:58;102392.16;;;12.23;60.43
69624;BME280;56843;52.020;5.670;2023-04-09T01:28:42;102397.31;;;12.20;60.72
69624;BME280;56843;52.020;5.670;2023-04-09T01:30:15;102390.38;;;12.19;60.73
69624;BME280;56843;52.020;5.670;2023-04-09T01:31:47;102399.72;;;12.21;60.64
69624;BME280;56843;52.020;5.670;2023-04-09T01:33:19;102399.72;;;12.21;60.59
69624;BME280;56843;52.020;5.670;2023-04-09T01:34:51;102401.28;;;12.22;60.73
69624;BME280;56843;52.020;5.670;2023-04-09T01:36:24;102394.84;;;12.23;60.66
69624;BME280;56843;52.020;5.670;2023-04-09T01:37:57;102400.22;;;12.23;60.78
69624;BME280;56843;52.020;5.670;2023-04-09T01:39:28;102402.88;;;12.23;60.77
69624;BME280;56843;52.020;5.670;2023-04-09T01:40:59;102391.38;;;12.23;60.54
69624;BME280;56843;52.020;5.670;2023-04-09T01:42:30;102396.72;;;12.23;60.74
69624;BME280;56843;52.020;5.670;2023-04-09T01:44:02;102400.22;;;12.23;60.45
69624;BME280;56843;52.020;5.670;2023-04-09T01:45:33;102389.75;;;12.22;60.75
69624;BME280;56843;52.020;5.670;2023-04-09T01:47:04;102395.13;;;12.22;60.63
69624;BME280;56843;52.020;5.670;2023-04-09T01:48:36;102393.56;;;12.21;60.83
69624;BME280;56843;52.020;5.670;2023-04-09T01:50:07;102387.38;;;12.20;60.77
69624;BME280;56843;52.020;5.670;2023-04-09T01:51:38;102388.19;;;12.21;60.73
69624;BME280;56843;52.020;5.670;2023-04-09T01:53:09;102385.50;;;12.21;60.97
69624;BME280;56843;52.020;5.670;2023-04-09T01:54:41;102379.34;;;12.20;60.80
69624;BME280;56843;52.020;5.670;2023-04-09T01:56:12;102383.91;;;12.20;60.80
69624;BME280;56843;52.020;5.670;2023-04-09T01:57:42;102385.81;;;12.19;60.56
69624;BME280;56843;52.020;5.670;2023-04-09T01:59:13;102386.59;;;12.20;60.82
69624;BME280;56843;52.020;5.670;2023-04-09T02:00:46;102389.28;;;12.20;60.92
69624;BME280;56843;52.020;5.670;2023-04-09T02:02:21;102383.13;;;12.19;60.69
69624;BME280;56843;52.020;5.670;2023-04-09T02:03:57;102385.00;;;12.19;60.94
69624;BME280;56843;52.020;5.670;2023-04-09T02:05:34;102384.22;;;12.18;61.02
69624;BME280;56843;52.020;5.670;2023-04-09T02:07:11;102386.09;;;12.18;61.17
69624;BME280;56843;52.020;5.670;2023-04-09T02:08:46;102380.72;;;12.18;60.77
69624;BME280;56843;52.020;5.670;2023-04-09T02:10:19;102375.38;;;12.18;60.89
69624;BME280;56843;52.020;5.670;2023-04-09T02:11:51;102383.41;;;12.18;60.75
69624;BME280;56843;52.020;5.670;2023-04-09T02:13:23;102375.69;;;12.16;61.19
69624;BME280;56843;52.020;5.670;2023-04-09T02:14:59;102376.47;;;12.17;61.11
69624;BME280;56843;52.020;5.670;2023-04-09T02:16:31;102378.34;;;12.16;61.13
69624;BME280;56843;52.020;5.670;2023-04-09T02:18:02;102373.88;;;12.12;60.99
69624;BME280;56843;52.020;5.670;2023-04-09T02:19:42;102378.66;;;12.15;60.92
69624;BME280;56843;52.020;5.670;2023-04-09T02:21:13;102367.44;;;12.13;60.86
69624;BME280;56843;52.020;5.670;2023-04-09T02:22:45;102368.22;;;12.13;60.99
69624;BME280;56843;52.020;5.670;2023-04-09T02:24:15;102377.88;;;12.14;61.03
69624;BME280;56843;52.020;5.670;2023-04-09T02:25:46;102366.44;;;12.09;61.01
69624;BME280;56843;52.020;5.670;2023-04-09T02:27:16;102379.75;;;12.14;60.85
69624;BME280;56843;52.020;5.670;2023-04-09T02:28:47;102373.88;;;12.12;61.07
69624;BME280;56843;52.020;5.670;2023-04-09T02:30:17;102363.16;;;12.12;60.68
69624;BME280;56843;52.020;5.670;2023-04-09T02:31:48;102370.41;;;12.11;60.93
69624;BME280;56843;52.020;5.670;2023-04-09T02:33:22;102369.34;;;12.12;61.26
69624;BME280;56843;52.020;5.670;2023-04-09T02:34:52;102375.50;;;12.13;61.04
69624;BME280;56843;52.020;5.670;2023-04-09T02:36:23;102367.72;;;12.11;61.28
69624;BME280;56843;52.020;5.670;2023-04-09T02:37:53;102369.34;;;12.12;61.13
69624;BME280;56843;52.020;5.670;2023-04-09T02:39:24;102373.88;;;12.12;60.77
69624;BME280;56843;52.020;5.670;2023-04-09T02:40:56;102363.97;;;12.12;60.82
69624;BME280;56843;52.020;5.670;2023-04-09T02:42:27;102362.38;;;12.11;61.28
69624;BME280;56843;52.020;5.670;2023-04-09T02:43:57;102360.00;;;12.10;61.02
69624;BME280;56843;52.020;5.670;2023-04-09T02:45:29;102360.78;;;12.10;61.11
69624;BME280;56843;52.020;5.670;2023-04-09T02:47:00;102366.94;;;12.11;61.23
69624;BME280;56843;52.020;5.670;2023-04-09T02:48:31;102363.97;;;12.12;61.10
69624;BME280;56843;52.020;5.670;2023-04-09T02:50:02;102357.00;;;12.11;61.07
69624;BME280;56843;52.020;5.670;2023-04-09T02:51:36;102364.25;;;12.11;61.19
69624;BME280;56843;52.020;5.670;2023-04-09T02:53:06;102360.00;;;12.10;60.85
69624;BME280;56843;52.020;5.670;2023-04-09T02:54:36;102358.88;;;12.11;61.19
69624;BME280;56843;52.020;5.670;2023-04-09T02:56:07;102357.81;;;12.12;61.01
69624;BME280;56843;52.020;5.670;2023-04-09T02:57:37;102355.94;;;12.12;61.36
69624;BME280;56843;52.020;5.670;2023-04-09T02:59:08;102357.81;;;12.12;61.28
69624;BME280;56843;52.020;5.670;2023-04-09T03:00:39;102351.66;;;12.11;61.18
69624;BME280;56843;52.020;5.670;2023-04-09T03:02:10;102348.72;;;12.13;60.85
69624;BME280;56843;52.020;5.670;2023-04-09T03:03:40;102361.28;;;12.12;61.03
69624;BME280;56843;52.020;5.670;2023-04-09T03:05:12;102348.97;;;12.11;60.95
69624;BME280;56843;52.020;5.670;2023-04-09T03:06:42;102355.13;;;12.12;61.10
69624;BME280;56843;52.020;5.670;2023-04-09T03:08:13;102359.41;;;12.13;61.07
69624;BME280;56843;52.020;5.670;2023-04-09T03:09:43;102350.59;;;12.12;60.90
69624;BME280;56843;52.020;5.670;2023-04-09T03:11:14;102355.94;;;12.12;60.86
69624;BME280;56843;52.020;5.670;2023-04-09T03:12:45;102354.34;;;12.11;61.18
69624;BME280;56843;52.020;5.670;2023-04-09T03:14:17;102355.44;;;12.10;61.22
69624;BME280;56843;52.020;5.670;2023-04-09T03:15:51;102352.47;;;12.12;61.08
69624;BME280;56843;52.020;5.670;2023-04-09T03:17:22;102350.84;;;12.11;61.23
69624;BME280;56843;52.020;5.670;2023-04-09T03:18:56;102351.16;;;12.09;61.07
69624;BME280;56843;52.020;5.670;2023-04-09T03:20:26;102349.28;;;12.10;61.37
69624;BME280;56843;52.020;5.670;2023-04-09T03:21:57;102350.84;;;12.11;60.93
69624;BME280;56843;52.020;5.670;2023-04-09T03:23:30;102351.16;;;12.09;61.12
69624;BME280;56843;52.020;5.670;2023-04-09T03:25:04;102351.16;;;12.09;60.86
69624;BME280;56843;52.020;5.670;2023-04-09T03:26:36;102344.22;;;12.08;60.95
69624;BME280;56843;52.020;5.670;2023-04-09T03:28:09;102339.97;;;12.07;61.33
69624;BME280;56843;52.020;5.670;2023-04-09T03:29:45;102342.13;;;12.05;61.16
69624;BME280;56843;52.020;5.670;2023-04-09T03:31:16;102344.81;;;12.05;61.52
69624;BME280;56843;52.020;5.670;2023-04-09T03:32:48;102335.97;;;12.05;61.12
69624;BME280;56843;52.020;5.670;2023-04-09T03:34:18;102326.06;;;12.05;61.37
69624;BME280;56843;52.020;5.670;2023-04-09T03:35:53;102328.75;;;12.05;61.28
69624;BME280;56843;52.020;5.670;2023-04-09T03:37:44;102330.13;;;12.03;61.08
69624;BME280;56843;52.020;5.670;2023-04-09T03:39:20;102332.00;;;12.02;61.41
69624;BME280;56843;52.020;5.670;2023-04-09T03:40:50;102325.56;;;12.03;61.05
69624;BME280;56843;52.020;5.670;2023-04-09T03:42:21;102336.28;;;12.03;61.19
69624;BME280;56843;52.020;5.670;2023-04-09T03:43:53;102330.94;;;12.03;60.74
69624;BME280;56843;52.020;5.670;2023-04-09T03:45:28;102334.41;;;12.04;61.10
69624;BME280;56843;52.020;5.670;2023-04-09T03:47:14;102330.44;;;12.01;60.95
69624;BME280;56843;52.020;5.670;2023-04-09T03:48:45;102330.13;;;12.03;60.94
69624;BME280;56843;52.020;5.670;2023-04-09T03:50:16;102331.22;;;12.02;61.24
69624;BME280;56843;52.020;5.670;2023-04-09T03:51:54;102333.09;;;12.01;61.05
69624;BME280;56843;52.020;5.670;2023-04-09T03:53:24;102332.00;;;12.02;61.04
69624;BME280;56843;52.020;5.670;2023-04-09T03:55:02;102331.22;;;12.02;61.06
69624;BME280;56843;52.020;5.670;2023-04-09T03:56:32;102328.25;;;12.03;60.70
69624;BME280;56843;52.020;5.670;2023-04-09T03:58:04;102326.66;;;12.02;60.85
69624;BME280;56843;52.020;5.670;2023-04-09T03:59:37;102330.13;;;12.03;60.94
69624;BME280;56843;52.020;5.670;2023-04-09T04:01:08;102319.72;;;12.01;60.95
69624;BME280;56843;52.020;5.670;2023-04-09T04:02:43;102333.09;;;12.01;60.67
69624;BME280;56843;52.020;5.670;2023-04-09T04:04:14;102334.19;;;12.00;60.64
69624;BME280;56843;52.020;5.670;2023-04-09T04:05:47;102320.78;;;12.00;61.02
69624;BME280;56843;52.020;5.670;2023-04-09T04:07:20;102326.16;;;12.00;60.79
69624;BME280;56843;52.020;5.670;2023-04-09T04:08:55;102322.66;;;12.00;60.68
69624;BME280;56843;52.020;5.670;2023-04-09T04:10:34;102329.13;;;11.99;60.55
69624;BME280;56843;52.020;5.670;2023-04-09T04:12:04;102322.97;;;11.98;61.00
69624;BME280;56843;52.020;5.670;2023-04-09T04:13:48;102328.31;;;11.98;60.91
69624;BME280;56843;52.020;5.670;2023-04-09T04:15:18;102324.06;;;11.97;60.74
69624;BME280;56843;52.020;5.670;2023-04-09T04:16:54;102321.69;;;11.96;61.08
69624;BME280;56843;52.020;5.670;2023-04-09T04:18:29;102329.44;;;11.97;61.01
69624;BME280;56843;52.020;5.670;2023-04-09T04:20:00;102324.06;;;11.97;60.97
69624;BME280;56843;52.020;5.670;2023-04-09T04:21:31;102329.44;;;11.97;60.73
69624;BME280;56843;52.020;5.670;2023-04-09T04:23:05;102324.84;;;11.98;60.85
69624;BME280;56843;52.020;5.670;2023-04-09T04:24:37;102333.69;;;11.98;60.79
69624;BME280;56843;52.020;5.670;2023-04-09T04:26:08;102323.28;;;11.97;60.88
69624;BME280;56843;52.020;5.670;2023-04-09T04:27:43;102322.16;;;11.98;60.78
69624;BME280;56843;52.020;5.670;2023-04-09T04:29:14;102325.97;;;11.97;60.97
69624;BME280;56843;52.020;5.670;2023-04-09T04:30:58;102326.25;;;11.95;60.88
69624;BME280;56843;52.020;5.670;2023-04-09T04:32:30;102329.22;;;11.94;61.00
69624;BME280;56843;52.020;5.670;2023-04-09T04:34:01;102325.16;;;11.96;60.88
69624;BME280;56843;52.020;5.670;2023-04-09T04:35:32;102330.81;;;11.95;60.96
69624;BME280;56843;52.020;5.670;2023-04-09T04:37:05;102325.22;;;11.91;60.94
69624;BME280;56843;52.020;5.670;2023-04-09T04:38:37;102329.22;;;11.94;61.01
69624;BME280;56843;52.020;5.670;2023-04-09T04:40:13;102327.34;;;11.94;61.01
69624;BME280;56843;52.020;5.670;2023-04-09T04:41:46;102333.75;;;11.93;61.11
69624;BME280;56843;52.020;5.670;2023-04-09T04:43:21;102328.41;;;11.93;61.07
69624;BME280;56843;52.020;5.670;2023-04-09T04:44:53;102332.50;;;11.91;60.81
69624;BME280;56843;52.020;5.670;2023-04-09T04:46:45;102327.13;;;11.91;61.07
69624;BME280;56843;52.020;5.670;2023-04-09T04:48:16;102326.84;;;11.92;60.70
69624;BME280;56843;52.020;5.670;2023-04-09T04:49:46;102335.66;;;11.93;61.14
69624;BME280;56843;52.020;5.670;2023-04-09T04:51:17;102330.59;;;11.91;60.95
69624;BME280;56843;52.020;5.670;2023-04-09T04:53:00;102330.59;;;11.91;61.04
69624;BME280;56843;52.020;5.670;2023-04-09T04:54:35;102334.06;;;11.92;61.08
69624;BME280;56843;52.020;5.670;2023-04-09T04:56:11;102331.38;;;11.92;60.84
69624;BME280;56843;52.020;5.670;2023-04-09T04:57:44;102324.75;;;11.89;60.91
69624;BME280;56843;52.020;5.670;2023-04-09T04:59:15;102323.66;;;11.90;60.68
69624;BME280;56843;52.020;5.670;2023-04-09T05:00:59;102324.75;;;11.89;60.93
69624;BME280;56843;52.020;5.670;2023-04-09T05:02:30;102323.94;;;11.89;60.56
69624;BME280;56843;52.020;5.670;2023-04-09T05:04:19;102321.06;;;11.85;60.70
69624;BME280;56843;52.020;5.670;2023-04-09T05:05:49;102322.66;;;11.86;60.60
69624;BME280;56843;52.020;5.670;2023-04-09T05:07:20;102324.25;;;11.87;60.65
69624;BME280;56843;52.020;5.670;2023-04-09T05:08:57;102325.91;;;11.83;60.31
69624;BME280;56843;52.020;5.670;2023-04-09T05:10:29;102319.50;;;11.84;60.39
69624;BME280;56843;52.020;5.670;2023-04-09T05:12:01;102323.75;;;11.85;60.59
69624;BME280;56843;52.020;5.670;2023-04-09T05:13:32;102326.41;;;11.85;60.58
69624;BME280;56843;52.020;5.670;2023-04-09T05:15:05;102328.03;;;11.86;60.41
69624;BME280;56843;52.020;5.670;2023-04-09T05:16:36;102331.47;;;11.87;60.24
69624;BME280;56843;52.020;5.670;2023-04-09T05:18:09;102334.44;;;11.85;60.29
69624;BME280;56843;52.020;5.670;2023-04-09T05:19:40;102326.41;;;11.85;60.66
69624;BME280;56843;52.020;5.670;2023-04-09T05:21:10;102327.22;;;11.86;60.34
69624;BME280;56843;52.020;5.670;2023-04-09T05:22:42;102322.66;;;11.86;60.30
69624;BME280;56843;52.020;5.670;2023-04-09T05:24:13;102326.91;;;11.87;60.27
69624;BME280;56843;52.020;5.670;2023-04-09T05:25:43;102329.59;;;11.87;60.24
69624;BME280;56843;52.020;5.670;2023-04-09T05:27:22;102322.66;;;11.86;60.49
69624;BME280;56843;52.020;5.670;2023-04-09T05:28:59;102325.63;;;11.85;60.67
69624;BME280;56843;52.020;5.670;2023-04-09T05:30:30;102322.16;;;11.84;60.38
69624;BME280;56843;52.020;5.670;2023-04-09T05:32:03;102322.16;;;11.84;60.21
69624;BME280;56843;52.020;5.670;2023-04-09T05:33:38;102331.28;;;11.83;60.49
69624;BME280;56843;52.020;5.670;2023-04-09T05:35:17;102336.31;;;11.85;60.53
69624;BME280;56843;52.020;5.670;2023-04-09T05:36:48;102334.44;;;11.85;60.13
69624;BME280;56843;52.020;5.670;2023-04-09T05:38:19;102321.38;;;11.84;60.27
69624;BME280;56843;52.020;5.670;2023-04-09T05:39:57;102332.88;;;11.84;60.20
69624;BME280;56843;52.020;5.670;2023-04-09T05:41:28;102330.19;;;11.84;60.48
69624;BME280;56843;52.020;5.670;2023-04-09T05:43:28;102328.59;;;11.83;60.44
69624;BME280;56843;52.020;5.670;2023-04-09T05:44:58;102331.28;;;11.83;60.55
69624;BME280;56843;52.020;5.670;2023-04-09T05:46:28;102336.06;;;11.86;60.34
69624;BME280;56843;52.020;5.670;2023-04-09T05:48:00;102332.56;;;11.86;60.16
69624;BME280;56843;52.020;5.670;2023-04-09T05:49:31;102334.94;;;11.87;60.29
69624;BME280;56843;52.020;5.670;2023-04-09T05:51:02;102325.84;;;11.88;60.37
69624;BME280;56843;52.020;5.670;2023-04-09T05:52:33;102335.44;;;11.89;60.24
69624;BME280;56843;52.020;5.670;2023-04-09T05:54:03;102341.91;;;11.88;60.00
69624;BME280;56843;52.020;5.670;2023-04-09T05:55:38;102335.44;;;11.89;60.13
69624;BME280;56843;52.020;5.670;2023-04-09T05:57:08;102337.06;;;11.90;60.10
69624;BME280;56843;52.020;5.670;2023-04-09T05:58:42;102339.22;;;11.88;59.97
69624;BME280;56843;52.020;5.670;2023-04-09T06:00:12;102344.28;;;11.90;60.36
69624;BME280;56843;52.020;5.670;2023-04-09T06:01:51;102338.13;;;11.89;60.11
69624;BME280;56843;52.020;5.670;2023-04-09T06:03:22;102346.94;;;11.90;59.99
69624;BME280;56843;52.020;5.670;2023-04-09T06:04:52;102341.09;;;11.88;59.93
69624;BME280;56843;52.020;5.670;2023-04-09T06:06:22;102348.03;;;11.89;60.19
69624;BME280;56843;52.020;5.670;2023-04-09T06:07:53;102338.72;;;11.86;60.20
69624;BME280;56843;52.020;5.670;2023-04-09T06:09:24;102342.19;;;11.87;59.79
69624;BME280;56843;52.020;5.670;2023-04-09T06:10:55;102341.41;;;11.86;60.11
69624;BME280;56843;52.020;5.670;2023-04-09T06:12:25;102333.66;;;11.85;60.06
69624;BME280;56843;52.020;5.670;2023-04-09T06:13:56;102339.81;;;11.85;60.01
69624;BME280;56843;52.020;5.670;2023-04-09T06:15:26;102337.13;;;11.85;59.63
69624;BME280;56843;52.020;5.670;2023-04-09T06:16:58;102329.41;;;11.84;59.66
69624;BME280;56843;52.020;5.670;2023-04-09T06:18:29;102332.06;;;11.84;59.84
69624;BME280;56843;52.020;5.670;2023-04-09T06:19:59;102329.41;;;11.84;59.56
69624;BME280;56843;52.020;5.670;2023-04-09T06:21:30;102330.19;;;11.84;59.43
69624;BME280;56843;52.020;5.670;2023-04-09T06:23:00;102330.97;;;11.85;59.25
69624;BME280;56843;52.020;5.670;2023-04-09T06:24:31;102336.06;;;11.86;59.41
69624;BME280;56843;52.020;5.670;2023-04-09T06:26:02;102333.38;;;11.86;59.15
69624;BME280;56843;52.020;5.670;2023-04-09T06:27:32;102334.94;;;11.87;59.15
69624;BME280;56843;52.020;5.670;2023-04-09T06:29:03;102338.13;;;11.89;58.68
69624;BME280;56843;52.020;5.670;2023-04-09T06:30:33;102339.72;;;11.90;58.75
69624;BME280;56843;52.020;5.670;2023-04-09T06:32:06;102342.09;;;11.92;58.94
69624;BME280;56843;52.020;5.670;2023-04-09T06:33:36;102342.09;;;11.92;58.67
69624;BME280;56843;52.020;5.670;2023-04-09T06:35:07;102342.91;;;11.92;58.29
69624;BME280;56843;52.020;5.670;2023-04-09T06:36:37;102343.69;;;11.93;58.48
69624;BME280;56843;52.020;5.670;2023-04-09T06:38:09;102349.06;;;11.93;58.46
69624;BME280;56843;52.020;5.670;2023-04-09T06:39:39;102345.56;;;11.92;58.08
69624;BME280;56843;52.020;5.670;2023-04-09T06:41:11;102344.78;;;11.92;58.18
69624;BME280;56843;52.020;5.670;2023-04-09T06:42:41;102352.22;;;11.95;57.84
69624;BME280;56843;52.020;5.670;2023-04-09T06:44:23;102345.88;;;11.91;57.95
69624;BME280;56843;52.020;5.670;2023-04-09T06:45:53;102344.47;;;11.93;57.91
69624;BME280;56843;52.020;5.670;2023-04-09T06:47:24;102354.41;;;11.93;57.67
69624;BME280;56843;52.020;5.670;2023-04-09T06:48:55;102353.31;;;11.94;57.55
69624;BME280;56843;52.020;5.670;2023-04-09T06:50:25;102347.94;;;11.94;57.89
69624;BME280;56843;52.020;5.670;2023-04-09T06:51:56;102352.50;;;11.93;57.78
69624;BME280;56843;52.020;5.670;2023-04-09T06:53:27;102352.22;;;11.95;57.54
69624;BME280;56843;52.020;5.670;2023-04-09T06:54:57;102350.84;;;11.97;57.33
69624;BME280;56843;52.020;5.670;2023-04-09T06:56:27;102356.72;;;11.99;57.70
69624;BME280;56843;52.020;5.670;2023-04-09T06:57:58;102346.50;;;12.01;57.57
69624;BME280;56843;52.020;5.670;2023-04-09T06:59:29;102349.97;;;12.02;57.36
69624;BME280;56843;52.020;5.670;2023-04-09T07:00:59;102354.44;;;12.06;57.28
69624;BME280;56843;52.020;5.670;2023-04-09T07:02:30;102353.84;;;12.09;57.13
69624;BME280;56843;52.020;5.670;2023-04-09T07:04:00;102359.41;;;12.13;56.83
69624;BME280;56843;52.020;5.670;2023-04-09T07:05:31;102362.00;;;12.18;57.21
69624;BME280;56843;52.020;5.670;2023-04-09T07:07:02;102361.09;;;12.22;57.41
69624;BME280;56843;52.020;5.670;2023-04-09T07:08:32;102354.28;;;12.30;57.33
69624;BME280;56843;52.020;5.670;2023-04-09T07:10:03;102357.66;;;12.35;57.59
69624;BME280;56843;52.020;5.670;2023-04-09T07:11:35;102358.63;;;12.39;57.51
69624;BME280;56843;52.020;5.670;2023-04-09T07:13:06;102350.22;;;12.46;57.94
69624;BME280;56843;52.020;5.670;2023-04-09T07:14:36;102344.75;;;12.51;57.54
69624;BME280;56843;52.020;5.670;2023-04-09T07:16:07;102355.56;;;12.60;58.10
69624;BME280;56843;52.020;5.670;2023-04-09T07:17:39;102354.69;;;12.64;57.98
69624;BME280;56843;52.020;5.670;2023-04-09T07:19:10;102350.81;;;12.70;58.39
69624;BME280;56843;52.020;5.670;2023-04-09T07:20:40;102358.47;;;12.77;58.31
69624;BME280;56843;52.020;5.670;2023-04-09T07:22:11;102354.91;;;12.81;58.15
69624;BME280;56843;52.020;5.670;2023-04-09T07:23:41;102361.75;;;12.87;58.37
69624;BME280;56843;52.020;5.670;2023-04-09T07:25:12;102353.31;;;12.94;58.31
69624;BME280;56843;52.020;5.670;2023-04-09T07:26:42;102352.09;;;13.00;58.27
69624;BME280;56843;52.020;5.670;2023-04-09T07:28:13;102354.69;;;13.05;58.51
69624;BME280;56843;52.020;5.670;2023-04-09T07:29:43;102353.47;;;13.11;58.43
69624;BME280;56843;52.020;5.670;2023-04-09T07:31:14;102359.22;;;13.18;58.76
69624;BME280;56843;52.020;5.670;2023-04-09T07:32:45;102356.72;;;13.21;58.53
69624;BME280;56843;52.020;5.670;2023-04-09T07:34:16;102354.72;;;13.27;58.89
69624;BME280;56843;52.020;5.670;2023-04-09T07:35:47;102360.00;;;13.32;58.79
69624;BME280;56843;52.020;5.670;2023-04-09T07:37:17;102364.63;;;13.40;58.72
69624;BME280;56843;52.020;5.670;2023-04-09T07:38:48;102366.41;;;13.45;59.15
69624;BME280;56843;52.020;5.670;2023-04-09T07:40:18;102359.00;;;13.50;58.61
69624;BME280;56843;52.020;5.670;2023-04-09T07:41:49;102368.56;;;13.56;58.88
69624;BME280;56843;52.020;5.670;2023-04-09T07:43:20;102360.66;;;13.60;58.77
69624;BME280;56843;52.020;5.670;2023-04-09T07:44:50;102356.75;;;13.66;58.91
69624;BME280;56843;52.020;5.670;2023-04-09T07:46:21;102355.06;;;13.70;58.71
69624;BME280;56843;52.020;5.670;2023-04-09T07:47:51;102358.41;;;13.75;58.74
69624;BME280;56843;52.020;5.670;2023-04-09T07:49:22;102363.66;;;13.80;58.80
69624;BME280;56843;52.020;5.670;2023-04-09T07:50:52;102367.31;;;13.84;58.95
69624;BME280;56843;52.020;5.670;2023-04-09T07:52:22;102366.91;;;13.91;58.97
69624;BME280;56843;52.020;5.670;2023-04-09T07:53:53;102366.31;;;13.94;58.65
69624;BME280;56843;52.020;5.670;2023-04-09T07:55:23;102361.59;;;13.99;58.83
69624;BME280;56843;52.020;5.670;2023-04-09T07:56:54;102356.72;;;14.02;58.72
69624;BME280;56843;52.020;5.670;2023-04-09T07:58:25;102363.53;;;14.08;58.46
69624;BME280;56843;52.020;5.670;2023-04-09T07:59:56;102358.34;;;14.11;58.47
69624;BME280;56843;52.020;5.670;2023-04-09T08:01:27;102352.06;;;14.16;58.68
69624;BME280;56843;52.020;5.670;2023-04-09T08:02:58;102354.91;;;14.19;58.63
69624;BME280;56843;52.020;5.670;2023-04-09T08:04:28;102361.25;;;14.23;58.42
69624;BME280;56843;52.020;5.670;2023-04-09T08:05:58;102354.94;;;14.28;58.63
69624;BME280;56843;52.020;5.670;2023-04-09T08:07:29;102355.13;;;14.31;58.55
69624;BME280;56843;52.020;5.670;2023-04-09T08:08:59;102342.97;;;14.34;58.34
69624;BME280;56843;52.020;5.670;2023-04-09T08:10:30;102347.44;;;14.38;58.24